GLD1440 SBBV-TGPY
Flight info
| Callsign | GLD1440 |
|---|---|
| Flight time | 1h 23m |
| Altitude | 39000 |
| Route | DCT ILNER UM402 POS DCT IMORO DCT |
| Aircraft | C700/M-SDFGIRY/S |
Departure
| Time | 2026-04-25 18:43 |
|---|---|
| Airport | Atlas Brasil Cantanhede International Airport (SBBV) |
Arrival
| Time | 2026-04-25 20:06 |
|---|---|
| Airport | Maurice Bishop International Airport (TGPY) |
| Time | Latitude | Longitude | Altitude | Speed | Heading |
|---|---|---|---|---|---|
| 2026-04-25 17:34 | 2.84381 | -60.68885 | 266 ft | 0 kts | 334° |
| 2026-04-25 18:35 | 2.84392 | -60.68904 | 266 ft | 6 kts | 271° |
| 2026-04-25 18:35 | 2.84370 | -60.68960 | 266 ft | 12 kts | 244° |
| 2026-04-25 18:35 | 2.84369 | -60.69034 | 266 ft | 14 kts | 329° |
| 2026-04-25 18:36 | 2.84413 | -60.69009 | 266 ft | 9 kts | 63° |
| 2026-04-25 18:36 | 2.84454 | -60.68929 | 266 ft | 16 kts | 63° |
| 2026-04-25 18:36 | 2.84510 | -60.68907 | 266 ft | 13 kts | 271° |
| 2026-04-25 18:36 | 2.84464 | -60.69007 | 266 ft | 18 kts | 243° |
| 2026-04-25 18:37 | 2.84403 | -60.69128 | 265 ft | 21 kts | 243° |
| 2026-04-25 18:37 | 2.84334 | -60.69264 | 265 ft | 23 kts | 243° |
| 2026-04-25 18:37 | 2.84255 | -60.69416 | 265 ft | 26 kts | 243° |
| 2026-04-25 18:37 | 2.84170 | -60.69582 | 265 ft | 28 kts | 243° |
| 2026-04-25 18:38 | 2.84083 | -60.69753 | 264 ft | 24 kts | 243° |
| 2026-04-25 18:38 | 2.84001 | -60.69910 | 264 ft | 26 kts | 243° |
| 2026-04-25 18:38 | 2.83964 | -60.70018 | 264 ft | 7 kts | 312° |
| 2026-04-25 18:38 | 2.83997 | -60.70039 | 265 ft | 0 kts | 332° |
| 2026-04-25 18:39 | 2.83999 | -60.70041 | 265 ft | 2 kts | 332° |
| 2026-04-25 18:39 | 2.84043 | -60.70062 | 265 ft | 12 kts | 334° |
| 2026-04-25 18:39 | 2.84104 | -60.70037 | 265 ft | 9 kts | 63° |
| 2026-04-25 18:40 | 2.84105 | -60.70036 | 265 ft | 0 kts | 63° |
| 2026-04-25 18:42 | 2.84106 | -60.70034 | 265 ft | 5 kts | 63° |
| 2026-04-25 18:42 | 2.84298 | -60.69659 | 263 ft | 112 kts | 63° |
| 2026-04-25 18:43 | 2.84777 | -60.68739 | 627 ft | 175 kts | 63° |
| 2026-04-25 18:43 | 2.85379 | -60.67571 | 1330 ft | 194 kts | 63° |
| 2026-04-25 18:43 | 2.86000 | -60.66328 | 2311 ft | 204 kts | 64° |
| 2026-04-25 18:43 | 2.86662 | -60.65035 | 3574 ft | 217 kts | 63° |
| 2026-04-25 18:44 | 2.87391 | -60.63624 | 4744 ft | 240 kts | 63° |
| 2026-04-25 18:44 | 2.88505 | -60.62289 | 5952 ft | 262 kts | 33° |
| 2026-04-25 18:44 | 2.90275 | -60.61875 | 7457 ft | 269 kts | 358° |
| 2026-04-25 18:44 | 2.92148 | -60.62178 | 8889 ft | 277 kts | 348° |
| 2026-04-25 18:45 | 2.94053 | -60.62619 | 10280 ft | 287 kts | 347° |
| 2026-04-25 18:45 | 2.96085 | -60.63061 | 11177 ft | 312 kts | 349° |
| 2026-04-25 18:45 | 2.98291 | -60.63397 | 12350 ft | 324 kts | 352° |
| 2026-04-25 18:45 | 3.00552 | -60.63725 | 13775 ft | 331 kts | 351° |
| 2026-04-25 18:46 | 3.02818 | -60.64106 | 14938 ft | 339 kts | 351° |
| 2026-04-25 18:46 | 3.05167 | -60.64508 | 16134 ft | 345 kts | 351° |
| 2026-04-25 18:46 | 3.07564 | -60.64898 | 17298 ft | 352 kts | 351° |
| 2026-04-25 18:46 | 3.10010 | -60.65291 | 18406 ft | 359 kts | 351° |
| 2026-04-25 18:47 | 3.12497 | -60.65699 | 19380 ft | 366 kts | 351° |
| 2026-04-25 18:47 | 3.15037 | -60.66118 | 20349 ft | 372 kts | 351° |
| 2026-04-25 18:47 | 3.17612 | -60.66540 | 21308 ft | 378 kts | 351° |
| 2026-04-25 18:47 | 3.20234 | -60.66968 | 22243 ft | 385 kts | 351° |
| 2026-04-25 18:48 | 3.22894 | -60.67404 | 23159 ft | 391 kts | 351° |
| 2026-04-25 18:48 | 3.25614 | -60.67849 | 23965 ft | 397 kts | 351° |
| 2026-04-25 18:48 | 3.28351 | -60.68298 | 24755 ft | 401 kts | 351° |
| 2026-04-25 18:48 | 3.31129 | -60.68754 | 25540 ft | 406 kts | 351° |
| 2026-04-25 18:49 | 3.33895 | -60.69208 | 26298 ft | 410 kts | 352° |
| 2026-04-25 18:49 | 3.36734 | -60.69671 | 27060 ft | 415 kts | 352° |
| 2026-04-25 18:49 | 3.39598 | -60.70141 | 27805 ft | 420 kts | 352° |
| 2026-04-25 18:49 | 3.42493 | -60.70616 | 28534 ft | 425 kts | 352° |
| 2026-04-25 18:50 | 3.45432 | -60.71098 | 29257 ft | 429 kts | 352° |
| 2026-04-25 18:50 | 3.48394 | -60.71583 | 29952 ft | 434 kts | 352° |
| 2026-04-25 18:50 | 3.51397 | -60.72075 | 30542 ft | 439 kts | 352° |
| 2026-04-25 18:50 | 3.54438 | -60.72574 | 31131 ft | 444 kts | 352° |
| 2026-04-25 18:51 | 3.57498 | -60.73076 | 31712 ft | 448 kts | 352° |
| 2026-04-25 18:51 | 3.58497 | -60.73239 | 31896 ft | 449 kts | 352° |
| 2026-04-25 18:51 | 3.63671 | -60.74088 | 32801 ft | 457 kts | 352° |
| 2026-04-25 18:51 | 3.66827 | -60.74605 | 33313 ft | 461 kts | 352° |
| 2026-04-25 18:52 | 3.70007 | -60.75126 | 33802 ft | 465 kts | 352° |
| 2026-04-25 18:52 | 3.73200 | -60.75650 | 34241 ft | 469 kts | 352° |
| 2026-04-25 18:52 | 3.76451 | -60.76183 | 34695 ft | 473 kts | 352° |
| 2026-04-25 18:52 | 3.79698 | -60.76717 | 35150 ft | 476 kts | 352° |
| 2026-04-25 18:53 | 3.82991 | -60.77256 | 35642 ft | 478 kts | 352° |
| 2026-04-25 18:53 | 3.86271 | -60.77794 | 36304 ft | 477 kts | 352° |
| 2026-04-25 18:53 | 3.89565 | -60.78177 | 36910 ft | 475 kts | 356° |
| 2026-04-25 18:53 | 3.92857 | -60.78453 | 37507 ft | 474 kts | 356° |
| 2026-04-25 18:54 | 3.99407 | -60.79049 | 38559 ft | 472 kts | 356° |
| 2026-04-25 18:54 | 4.02681 | -60.79355 | 38867 ft | 474 kts | 356° |
| 2026-04-25 18:55 | 4.09297 | -60.79943 | 38878 ft | 482 kts | 356° |
| 2026-04-25 18:55 | 4.15982 | -60.80558 | 38882 ft | 482 kts | 356° |
| 2026-04-25 18:56 | 4.22663 | -60.81161 | 38889 ft | 482 kts | 356° |
| 2026-04-25 18:56 | 4.29344 | -60.81771 | 38895 ft | 482 kts | 356° |
| 2026-04-25 18:57 | 4.36011 | -60.82375 | 38898 ft | 482 kts | 356° |
| 2026-04-25 18:57 | 4.42706 | -60.82985 | 38905 ft | 482 kts | 356° |
| 2026-04-25 18:58 | 4.49343 | -60.83588 | 38910 ft | 482 kts | 356° |
| 2026-04-25 18:58 | 4.59367 | -60.84501 | 38920 ft | 481 kts | 356° |
| 2026-04-25 18:59 | 4.72722 | -60.85717 | 38929 ft | 482 kts | 356° |
| 2026-04-25 19:00 | 4.82712 | -60.86666 | 38936 ft | 482 kts | 356° |
| 2026-04-25 19:01 | 4.92761 | -60.87610 | 38935 ft | 482 kts | 356° |
| 2026-04-25 19:01 | 4.99401 | -60.88234 | 38936 ft | 481 kts | 356° |
| 2026-04-25 19:02 | 5.09420 | -60.89179 | 38935 ft | 481 kts | 356° |
| 2026-04-25 19:03 | 5.17180 | -60.89909 | 38938 ft | 482 kts | 355° |
| 2026-04-25 19:03 | 5.26115 | -60.90751 | 38933 ft | 482 kts | 355° |
| 2026-04-25 19:04 | 5.36141 | -60.91697 | 38932 ft | 481 kts | 355° |
| 2026-04-25 19:05 | 5.49454 | -60.92913 | 38924 ft | 481 kts | 356° |
| 2026-04-25 19:06 | 5.56098 | -60.93517 | 38920 ft | 481 kts | 355° |
| 2026-04-25 19:06 | 5.66114 | -60.94416 | 38921 ft | 482 kts | 355° |
| 2026-04-25 19:07 | 5.76147 | -60.95324 | 38920 ft | 483 kts | 356° |
| 2026-04-25 19:08 | 5.86197 | -60.96231 | 38925 ft | 484 kts | 355° |
| 2026-04-25 19:09 | 5.97355 | -60.97238 | 38919 ft | 484 kts | 355° |
| 2026-04-25 19:10 | 6.08499 | -60.98245 | 38920 ft | 483 kts | 355° |
| 2026-04-25 19:10 | 6.15252 | -60.98855 | 38917 ft | 483 kts | 355° |
| 2026-04-25 19:11 | 6.21899 | -60.99456 | 38910 ft | 483 kts | 355° |
| 2026-04-25 19:11 | 6.28585 | -61.00060 | 38910 ft | 482 kts | 355° |
| 2026-04-25 19:12 | 6.35281 | -61.00666 | 38902 ft | 482 kts | 355° |
| 2026-04-25 19:12 | 6.41976 | -61.01271 | 38897 ft | 483 kts | 355° |
| 2026-04-25 19:13 | 6.48667 | -61.01877 | 38890 ft | 483 kts | 355° |
| 2026-04-25 19:13 | 6.55337 | -61.02480 | 38886 ft | 483 kts | 355° |
| 2026-04-25 19:14 | 6.62047 | -61.03089 | 38882 ft | 484 kts | 355° |
| 2026-04-25 19:14 | 6.68753 | -61.03695 | 38877 ft | 484 kts | 355° |
| 2026-04-25 19:15 | 6.75469 | -61.04315 | 38874 ft | 484 kts | 355° |
| 2026-04-25 19:15 | 6.82177 | -61.04959 | 38874 ft | 484 kts | 355° |
| 2026-04-25 19:16 | 6.88846 | -61.05584 | 38868 ft | 484 kts | 355° |
| 2026-04-25 19:16 | 6.95551 | -61.06221 | 38868 ft | 484 kts | 355° |
| 2026-04-25 19:17 | 7.02156 | -61.06844 | 38864 ft | 484 kts | 355° |
| 2026-04-25 19:17 | 7.08867 | -61.07481 | 38864 ft | 484 kts | 355° |
| 2026-04-25 19:18 | 7.15585 | -61.08115 | 38865 ft | 484 kts | 355° |
| 2026-04-25 19:18 | 7.22295 | -61.08752 | 38866 ft | 484 kts | 355° |
| 2026-04-25 19:19 | 7.28921 | -61.09379 | 38868 ft | 483 kts | 355° |
| 2026-04-25 19:19 | 7.35622 | -61.10014 | 38870 ft | 483 kts | 355° |
| 2026-04-25 19:20 | 7.42330 | -61.10649 | 38871 ft | 483 kts | 355° |
| 2026-04-25 19:20 | 7.48997 | -61.11282 | 38870 ft | 483 kts | 355° |
| 2026-04-25 19:21 | 7.55644 | -61.11912 | 38873 ft | 482 kts | 355° |
| 2026-04-25 19:21 | 7.65682 | -61.12864 | 38876 ft | 482 kts | 355° |
| 2026-04-25 19:22 | 7.72356 | -61.13498 | 38873 ft | 482 kts | 355° |
| 2026-04-25 19:23 | 7.82376 | -61.14449 | 38875 ft | 481 kts | 354° |
| 2026-04-25 19:23 | 7.92333 | -61.15394 | 38876 ft | 480 kts | 354° |
| 2026-04-25 19:24 | 7.98997 | -61.16029 | 38875 ft | 480 kts | 354° |
| 2026-04-25 19:25 | 8.12296 | -61.17293 | 38873 ft | 479 kts | 354° |
| 2026-04-25 19:25 | 8.18900 | -61.17921 | 38872 ft | 479 kts | 354° |
| 2026-04-25 19:26 | 8.25545 | -61.18553 | 38875 ft | 479 kts | 354° |
| 2026-04-25 19:26 | 8.32181 | -61.19185 | 38874 ft | 478 kts | 354° |
| 2026-04-25 19:27 | 8.37692 | -61.19710 | 38873 ft | 478 kts | 354° |
| 2026-04-25 19:27 | 8.45450 | -61.20448 | 38879 ft | 478 kts | 354° |
| 2026-04-25 19:28 | 8.52036 | -61.21058 | 38879 ft | 479 kts | 354° |
| 2026-04-25 19:28 | 8.58682 | -61.21659 | 38879 ft | 478 kts | 354° |
| 2026-04-25 19:29 | 8.65324 | -61.22272 | 38881 ft | 479 kts | 354° |
| 2026-04-25 19:29 | 8.71928 | -61.22873 | 38881 ft | 479 kts | 354° |
| 2026-04-25 19:30 | 8.78576 | -61.23484 | 38886 ft | 479 kts | 354° |
| 2026-04-25 19:30 | 8.85238 | -61.24092 | 38887 ft | 480 kts | 354° |
| 2026-04-25 19:31 | 8.91899 | -61.24705 | 38885 ft | 480 kts | 354° |
| 2026-04-25 19:31 | 8.98555 | -61.25314 | 38888 ft | 481 kts | 354° |
| 2026-04-25 19:32 | 9.05232 | -61.25927 | 38892 ft | 481 kts | 354° |
| 2026-04-25 19:32 | 9.10785 | -61.26436 | 38891 ft | 479 kts | 354° |
| 2026-04-25 19:33 | 9.15110 | -61.26832 | 38885 ft | 463 kts | 355° |
| 2026-04-25 19:33 | 9.18303 | -61.27125 | 38882 ft | 459 kts | 355° |
| 2026-04-25 19:33 | 9.24664 | -61.27710 | 38877 ft | 459 kts | 355° |
| 2026-04-25 19:34 | 9.31040 | -61.28295 | 38879 ft | 460 kts | 355° |
| 2026-04-25 19:34 | 9.37319 | -61.28873 | 38877 ft | 445 kts | 355° |
| 2026-04-25 19:35 | 9.43451 | -61.29436 | 38883 ft | 442 kts | 354° |
| 2026-04-25 19:35 | 9.49586 | -61.30000 | 38879 ft | 443 kts | 355° |
| 2026-04-25 19:36 | 9.55687 | -61.30561 | 38882 ft | 443 kts | 354° |
| 2026-04-25 19:36 | 9.61882 | -61.31131 | 38884 ft | 444 kts | 354° |
| 2026-04-25 19:37 | 9.68000 | -61.31694 | 38887 ft | 444 kts | 354° |
| 2026-04-25 19:37 | 9.74158 | -61.32261 | 38890 ft | 444 kts | 354° |
| 2026-04-25 19:38 | 9.80321 | -61.32829 | 38894 ft | 444 kts | 354° |
| 2026-04-25 19:38 | 9.86469 | -61.33395 | 38895 ft | 444 kts | 354° |
| 2026-04-25 19:39 | 9.92625 | -61.33971 | 38894 ft | 444 kts | 354° |
| 2026-04-25 19:39 | 9.98771 | -61.34582 | 38894 ft | 444 kts | 354° |
| 2026-04-25 19:40 | 10.04911 | -61.35171 | 38899 ft | 443 kts | 354° |
| 2026-04-25 19:40 | 10.11058 | -61.35773 | 38896 ft | 443 kts | 354° |
| 2026-04-25 19:41 | 10.17215 | -61.36369 | 38649 ft | 448 kts | 354° |
| 2026-04-25 19:41 | 10.20329 | -61.36673 | 38031 ft | 449 kts | 354° |
| 2026-04-25 19:41 | 10.21336 | -61.36771 | 37840 ft | 448 kts | 354° |
| 2026-04-25 19:42 | 10.26512 | -61.37275 | 36856 ft | 445 kts | 354° |
| 2026-04-25 19:42 | 10.28561 | -61.37474 | 36469 ft | 448 kts | 353° |
| 2026-04-25 19:42 | 10.31435 | -61.37755 | 35928 ft | 453 kts | 353° |
| 2026-04-25 19:42 | 10.34595 | -61.38063 | 35325 ft | 456 kts | 353° |
| 2026-04-25 19:43 | 10.37758 | -61.38370 | 34722 ft | 458 kts | 353° |
| 2026-04-25 19:43 | 10.40948 | -61.38681 | 34114 ft | 461 kts | 353° |
| 2026-04-25 19:43 | 10.44143 | -61.38993 | 33475 ft | 463 kts | 353° |
| 2026-04-25 19:43 | 10.47332 | -61.39411 | 32853 ft | 463 kts | 347° |
| 2026-04-25 19:44 | 10.50461 | -61.40223 | 32248 ft | 465 kts | 344° |
| 2026-04-25 19:44 | 10.53613 | -61.41031 | 31643 ft | 467 kts | 345° |
| 2026-04-25 19:44 | 10.56772 | -61.41837 | 31067 ft | 469 kts | 345° |
| 2026-04-25 19:44 | 10.59943 | -61.42645 | 30510 ft | 471 kts | 345° |
| 2026-04-25 19:45 | 10.63135 | -61.43457 | 29968 ft | 473 kts | 345° |
| 2026-04-25 19:45 | 10.66327 | -61.44268 | 29343 ft | 470 kts | 345° |
| 2026-04-25 19:45 | 10.69435 | -61.45058 | 28749 ft | 459 kts | 345° |
| 2026-04-25 19:45 | 10.72484 | -61.45835 | 28169 ft | 458 kts | 345° |
| 2026-04-25 19:46 | 10.75616 | -61.46633 | 27598 ft | 456 kts | 346° |
| 2026-04-25 19:46 | 10.78656 | -61.47406 | 27052 ft | 457 kts | 346° |
| 2026-04-25 19:46 | 10.81748 | -61.48194 | 26512 ft | 458 kts | 346° |
| 2026-04-25 19:46 | 10.84839 | -61.48982 | 25996 ft | 459 kts | 346° |
| 2026-04-25 19:47 | 10.87942 | -61.49772 | 25488 ft | 460 kts | 346° |
| 2026-04-25 19:47 | 10.91047 | -61.50565 | 25004 ft | 460 kts | 346° |
| 2026-04-25 19:47 | 10.94153 | -61.51355 | 24528 ft | 461 kts | 346° |
| 2026-04-25 19:47 | 10.97276 | -61.52152 | 24062 ft | 461 kts | 346° |
| 2026-04-25 19:48 | 11.00392 | -61.52947 | 23613 ft | 461 kts | 346° |
| 2026-04-25 19:48 | 11.03506 | -61.53742 | 23104 ft | 461 kts | 346° |
| 2026-04-25 19:48 | 11.06631 | -61.54538 | 22579 ft | 463 kts | 346° |
| 2026-04-25 19:48 | 11.09738 | -61.55331 | 22072 ft | 451 kts | 346° |
| 2026-04-25 19:49 | 11.12692 | -61.56086 | 21569 ft | 425 kts | 346° |
| 2026-04-25 19:49 | 11.13611 | -61.56321 | 21407 ft | 417 kts | 346° |
| 2026-04-25 19:49 | 11.18153 | -61.57480 | 20574 ft | 386 kts | 346° |
| 2026-04-25 19:49 | 11.20535 | -61.58089 | 20084 ft | 328 kts | 346° |
| 2026-04-25 19:50 | 11.24918 | -61.59207 | 19067 ft | 325 kts | 346° |
| 2026-04-25 19:50 | 11.27101 | -61.59767 | 18584 ft | 323 kts | 346° |
| 2026-04-25 19:50 | 11.29273 | -61.60321 | 18099 ft | 320 kts | 346° |
| 2026-04-25 19:51 | 11.31426 | -61.60872 | 17560 ft | 318 kts | 346° |
| 2026-04-25 19:51 | 11.33565 | -61.61418 | 17036 ft | 315 kts | 346° |
| 2026-04-25 19:51 | 11.35684 | -61.61960 | 16528 ft | 313 kts | 346° |
| 2026-04-25 19:51 | 11.37737 | -61.62485 | 16047 ft | 310 kts | 346° |
| 2026-04-25 19:52 | 11.39821 | -61.63018 | 15570 ft | 308 kts | 346° |
| 2026-04-25 19:52 | 11.41899 | -61.63549 | 15101 ft | 306 kts | 346° |
| 2026-04-25 19:52 | 11.43951 | -61.64075 | 14642 ft | 303 kts | 346° |
| 2026-04-25 19:52 | 11.45993 | -61.64597 | 14192 ft | 301 kts | 346° |
| 2026-04-25 19:53 | 11.48019 | -61.65115 | 13755 ft | 299 kts | 346° |
| 2026-04-25 19:53 | 11.50029 | -61.65632 | 13269 ft | 297 kts | 345° |
| 2026-04-25 19:53 | 11.51897 | -61.66419 | 12767 ft | 295 kts | 329° |
| 2026-04-25 19:53 | 11.53549 | -61.67646 | 12293 ft | 292 kts | 321° |
| 2026-04-25 19:54 | 11.55133 | -61.68921 | 11837 ft | 290 kts | 321° |
| 2026-04-25 19:54 | 11.56724 | -61.70182 | 11393 ft | 288 kts | 321° |
| 2026-04-25 19:54 | 11.58296 | -61.71433 | 10943 ft | 286 kts | 321° |
| 2026-04-25 19:54 | 11.58824 | -61.71853 | 10813 ft | 285 kts | 321° |
| 2026-04-25 19:55 | 11.61419 | -61.73922 | 10113 ft | 282 kts | 321° |
| 2026-04-25 19:55 | 11.62962 | -61.75153 | 9697 ft | 281 kts | 321° |
| 2026-04-25 19:55 | 11.64500 | -61.76378 | 9240 ft | 279 kts | 321° |
| 2026-04-25 19:55 | 11.66004 | -61.77577 | 8821 ft | 268 kts | 321° |
| 2026-04-25 19:56 | 11.67476 | -61.78751 | 8470 ft | 269 kts | 321° |
| 2026-04-25 19:56 | 11.68446 | -61.79526 | 8232 ft | 267 kts | 321° |
| 2026-04-25 19:56 | 11.70293 | -61.80998 | 7790 ft | 264 kts | 321° |
| 2026-04-25 19:56 | 11.71736 | -61.82149 | 7446 ft | 262 kts | 321° |
| 2026-04-25 19:57 | 11.73168 | -61.83291 | 7098 ft | 260 kts | 321° |
| 2026-04-25 19:57 | 11.74531 | -61.84380 | 6763 ft | 241 kts | 321° |
| 2026-04-25 19:57 | 11.75419 | -61.85087 | 6556 ft | 246 kts | 321° |
| 2026-04-25 19:57 | 11.76767 | -61.86165 | 6230 ft | 247 kts | 321° |
| 2026-04-25 19:58 | 11.78121 | -61.87246 | 5889 ft | 247 kts | 322° |
| 2026-04-25 19:58 | 11.79476 | -61.88325 | 5562 ft | 246 kts | 322° |
| 2026-04-25 19:58 | 11.80821 | -61.89403 | 5237 ft | 246 kts | 322° |
| 2026-04-25 19:58 | 11.82169 | -61.90478 | 4919 ft | 247 kts | 322° |
| 2026-04-25 19:59 | 11.83540 | -61.91571 | 4586 ft | 251 kts | 322° |
| 2026-04-25 19:59 | 11.84931 | -61.92682 | 4221 ft | 257 kts | 322° |
| 2026-04-25 19:59 | 11.86334 | -61.93803 | 3890 ft | 256 kts | 322° |
| 2026-04-25 19:59 | 11.88166 | -61.95267 | 3513 ft | 246 kts | 322° |
| 2026-04-25 20:00 | 11.89065 | -61.95985 | 3312 ft | 240 kts | 322° |
| 2026-04-25 20:00 | 11.89984 | -61.96586 | 3093 ft | 235 kts | 336° |
| 2026-04-25 20:00 | 11.92032 | -61.97091 | 2803 ft | 220 kts | 359° |
| 2026-04-25 20:00 | 11.93517 | -61.97065 | 2643 ft | 202 kts | 3° |
| 2026-04-25 20:01 | 11.96118 | -61.97071 | 2371 ft | 183 kts | 3° |
| 2026-04-25 20:01 | 11.97381 | -61.97065 | 2237 ft | 179 kts | 2° |
| 2026-04-25 20:01 | 11.98591 | -61.96883 | 2106 ft | 173 kts | 25° |
| 2026-04-25 20:02 | 11.99570 | -61.96224 | 2002 ft | 165 kts | 47° |
| 2026-04-25 20:02 | 12.00195 | -61.95336 | 1994 ft | 157 kts | 67° |
| 2026-04-25 20:02 | 12.00479 | -61.94266 | 1996 ft | 154 kts | 88° |
| 2026-04-25 20:02 | 12.00457 | -61.93233 | 1982 ft | 140 kts | 93° |
| 2026-04-25 20:03 | 12.00475 | -61.92259 | 1972 ft | 136 kts | 90° |
| 2026-04-25 20:03 | 12.00470 | -61.91293 | 1917 ft | 137 kts | 93° |
| 2026-04-25 20:03 | 12.00465 | -61.90331 | 1838 ft | 134 kts | 91° |
| 2026-04-25 20:03 | 12.00462 | -61.89383 | 1765 ft | 132 kts | 93° |
| 2026-04-25 20:04 | 12.00458 | -61.88471 | 1640 ft | 124 kts | 92° |
| 2026-04-25 20:04 | 12.00452 | -61.87583 | 1482 ft | 123 kts | 93° |
| 2026-04-25 20:04 | 12.00447 | -61.86725 | 1310 ft | 121 kts | 92° |
| 2026-04-25 20:04 | 12.00445 | -61.85844 | 1148 ft | 125 kts | 91° |
| 2026-04-25 20:05 | 12.00436 | -61.84953 | 986 ft | 128 kts | 90° |
| 2026-04-25 20:05 | 12.00437 | -61.84044 | 823 ft | 132 kts | 92° |
| 2026-04-25 20:05 | 12.00429 | -61.83133 | 659 ft | 125 kts | 91° |
| 2026-04-25 20:05 | 12.00427 | -61.82245 | 490 ft | 127 kts | 92° |
| 2026-04-25 20:06 | 12.00429 | -61.81331 | 350 ft | 128 kts | 92° |
| 2026-04-25 20:06 | 12.00429 | -61.80448 | 163 ft | 121 kts | 93° |
| 2026-04-25 20:06 | 12.00419 | -61.79659 | 63 ft | 98 kts | 89° |
| 2026-04-25 20:06 | 12.00407 | -61.79108 | 60 ft | 44 kts | 91° |
| 2026-04-25 20:07 | 12.00413 | -61.78966 | 59 ft | 22 kts | 97° |
| 2026-04-25 20:07 | 12.00408 | -61.78783 | 59 ft | 29 kts | 88° |
| 2026-04-25 20:07 | 12.00415 | -61.78615 | 56 ft | 11 kts | 59° |
| 2026-04-25 20:07 | 12.00482 | -61.78598 | 61 ft | 9 kts | 1° |
| 2026-04-25 20:08 | 12.00530 | -61.78597 | 65 ft | 4 kts | 359° |
| 2026-04-25 20:08 | 12.00534 | -61.78597 | 65 ft | 0 kts | 359° |
| 2026-04-25 20:09 | 12.00565 | -61.78615 | 67 ft | 8 kts | 297° |
| 2026-04-25 20:09 | 12.00566 | -61.78679 | 67 ft | 10 kts | 268° |
| 2026-04-25 20:09 | 12.00595 | -61.78729 | 67 ft | 9 kts | 328° |
| 2026-04-25 20:09 | 12.00609 | -61.78758 | 66 ft | 0 kts | 271° |
| 2026-04-25 20:16 | 12.00610 | -61.78768 | 67 ft | 0 kts | 95° |
| 2026-04-25 20:17 | 12.00610 | -61.78766 | 68 ft | 0 kts | 95° |